Time;durP1;ratioP1;P1;durP2;ratioP2;P2;SDS_P1;SDS_P2;PMS_P1;PMS_P2;Temp;Humidity;BMP_temperature;BMP_pressure;BME280_temperature;BME280_humidity;BME280_pressure;Samples;Min_cycle;Max_cycle;Signal;HPM_P1;HPM_P2
2022/06/09 00:00:38;;;;;;;;;;;13.70;99.90;;;12.93;100.00;95086.31;10504212;28;2225;-72
2022/06/09 00:05:41;;;;;;;;;;;13.70;99.90;;;13.02;100.00;95093.66;10501973;28;1815;-73
2022/06/09 00:10:45;;;;;;;;;;;13.70;99.90;;;13.05;100.00;95093.06;10503259;28;1980;-73
2022/06/09 00:15:49;;;;;;;;;;;13.80;99.90;;;13.11;100.00;95092.66;10500557;28;1788;-73
2022/06/09 00:20:52;;;;;;;;;;;13.80;99.90;;;13.08;100.00;95085.16;10502900;28;1957;-73
2022/06/09 00:25:58;;;;;;;;;;;13.80;99.90;;;13.21;100.00;95091.63;10482671;28;1773;-72
2022/06/09 00:31:01;;;;;;;;;;;13.90;99.90;;;13.21;100.00;95095.13;10498719;28;1979;-73
2022/06/09 00:36:04;;;;;;;;;;;14.00;99.90;;;13.30;100.00;95097.09;10500592;28;1798;-73
2022/06/09 00:41:07;;;;;;;;;;;14.00;99.90;;;13.31;100.00;95094.09;10482826;28;2105;-73
2022/06/09 00:46:10;;;;;;;;;;;14.10;99.90;;;13.30;100.00;95100.59;10488429;28;2177;-73
2022/06/09 00:51:13;;;;;;;;;;;14.10;99.90;;;13.27;100.00;95092.28;10510213;28;1993;-73
2022/06/09 00:56:16;;;;;;;;;;;14.10;99.90;;;13.23;100.00;95094.81;10485281;28;2169;-73
2022/06/09 01:01:19;;;;;;;;;;;14.10;99.90;;;13.19;100.00;95096.50;10497129;28;2177;-72
2022/06/09 01:06:22;;;;;;;;;;;14.10;99.90;;;13.23;100.00;95105.59;10501584;28;1957;-73
2022/06/09 01:11:25;;;;;;;;;;;14.00;99.90;;;13.25;100.00;95103.41;10509537;28;1974;-73
2022/06/09 01:16:35;;;;;;;;;;;14.10;99.90;;;13.22;100.00;95093.22;10508392;28;1955;-72
2022/06/09 01:21:39;;;;;;;;;;;13.90;99.90;;;13.19;100.00;95116.19;10508622;28;2390;-72
2022/06/09 01:26:42;;;;;;;;;;;14.10;99.90;;;13.20;100.00;95103.50;10507923;28;2316;-72
2022/06/09 01:31:46;;;;;;;;;;;14.10;99.90;;;13.16;100.00;95105.19;10565238;28;1945;-72
2022/06/09 01:36:59;;;;;;;;;;;14.00;99.90;;;13.11;100.00;95108.03;10497666;28;1939;-72
2022/06/09 01:42:02;;;;;;;;;;;14.00;99.90;;;13.13;100.00;95111.22;10505566;28;1912;-73
2022/06/09 01:47:05;;;;;;;;;;;13.90;99.90;;;13.09;100.00;95099.44;10507776;28;1945;-73
2022/06/09 01:52:08;;;;;;;;;;;14.00;99.90;;;13.06;100.00;95106.25;10489098;28;1993;-72
2022/06/09 01:57:11;;;;;;;;;;;13.90;99.90;;;13.06;100.00;95110.84;10501907;28;2042;-73
2022/06/09 02:02:16;;;;;;;;;;;13.90;99.90;;;13.00;100.00;95110.16;10502502;28;2014;-73
2022/06/09 02:07:19;;;;;;;;;;;13.90;99.90;;;13.05;100.00;95104.66;10503417;28;1913;-72
2022/06/09 02:12:23;;;;;;;;;;;13.80;99.90;;;12.98;100.00;95109.69;10508336;28;2011;-74
2022/06/09 02:17:26;;;;;;;;;;;13.80;99.90;;;12.97;100.00;95108.84;10488363;28;1919;-72
2022/06/09 02:22:29;;;;;;;;;;;13.80;99.90;;;12.89;100.00;95109.59;10492826;28;1959;-74
2022/06/09 02:27:32;;;;;;;;;;;13.80;99.90;;;12.87;100.00;95114.50;10504825;28;2030;-73
2022/06/09 02:32:34;;;;;;;;;;;13.70;99.90;;;12.84;100.00;95115.09;10488234;28;1856;-73
2022/06/09 02:37:38;;;;;;;;;;;13.70;99.90;;;12.81;100.00;95115.72;10499097;28;1917;-73
2022/06/09 02:42:41;;;;;;;;;;;13.60;99.90;;;12.77;100.00;95114.72;10485799;28;2026;-73
2022/06/09 02:47:44;;;;;;;;;;;13.60;99.90;;;12.69;100.00;95113.53;10499436;28;1927;-73
2022/06/09 02:52:48;;;;;;;;;;;13.60;99.90;;;12.68;100.00;95116.53;10487332;28;1884;-73
2022/06/09 02:57:51;;;;;;;;;;;13.50;99.90;;;12.65;100.00;95109.03;10501996;28;1907;-73
2022/06/09 03:02:55;;;;;;;;;;;13.50;99.90;;;12.61;100.00;95121.53;10508146;28;1913;-73
2022/06/09 03:07:58;;;;;;;;;;;13.50;99.90;;;12.60;100.00;95128.03;10485203;28;1934;-72
2022/06/09 03:13:02;;;;;;;;;;;13.40;99.90;;;12.58;100.00;95127.53;10486492;28;1974;-73
2022/06/09 03:18:06;;;;;;;;;;;13.40;99.90;;;12.56;100.00;95129.72;10487416;28;1876;-72
2022/06/09 03:23:09;;;;;;;;;;;13.40;99.90;;;12.56;100.00;95140.53;10481502;28;2003;-73
2022/06/09 03:28:12;;;;;;;;;;;13.40;99.90;;;12.59;100.00;95137.19;10500807;28;1926;-73
2022/06/09 03:33:15;;;;;;;;;;;13.40;99.90;;;12.64;100.00;95137.91;10481612;28;1929;-73
2022/06/09 03:38:18;;;;;;;;;;;13.50;99.90;;;12.75;100.00;95149.28;10494943;28;1946;-72
2022/06/09 03:43:21;;;;;;;;;;;13.50;99.90;;;12.93;100.00;95139.47;10504881;28;1936;-73
2022/06/09 03:48:25;;;;;;;;;;;13.70;99.90;;;13.05;100.00;95147.03;10498941;28;2002;-73
2022/06/09 03:53:28;;;;;;;;;;;13.70;99.90;;;13.13;100.00;95149.78;10476811;28;1999;-73
2022/06/09 03:58:30;;;;;;;;;;;13.80;99.90;;;13.24;100.00;95140.41;10498030;28;1895;-73
2022/06/09 04:03:34;;;;;;;;;;;14.00;99.90;;;13.36;100.00;95147.13;10501545;28;2014;-71
2022/06/09 04:08:38;;;;;;;;;;;14.10;99.90;;;13.41;100.00;95149.72;10502698;28;1914;-73
2022/06/09 04:13:40;;;;;;;;;;;14.20;99.90;;;13.56;100.00;95152.06;10501465;28;1998;-72
2022/06/09 04:19:03;;;;;;;;;;;14.20;99.90;;;13.46;100.00;95161.19;10500579;28;2006;-72
2022/06/09 04:24:07;;;;;;;;;;;14.30;99.90;;;13.51;100.00;95161.09;10507572;28;1908;-73
2022/06/09 04:29:12;;;;;;;;;;;14.30;99.90;;;13.71;100.00;95164.38;10480232;28;1937;-72
2022/06/09 04:34:15;;;;;;;;;;;14.40;99.90;;;13.72;100.00;95172.19;10476291;28;1940;-72
2022/06/09 04:39:18;;;;;;;;;;;14.40;99.90;;;13.75;100.00;95182.38;10502707;28;1986;-72
2022/06/09 04:44:22;;;;;;;;;;;14.30;99.90;;;13.78;100.00;95178.25;10500287;28;1983;-72
2022/06/09 04:49:25;;;;;;;;;;;14.50;99.90;;;13.87;100.00;95187.22;10495745;28;1984;-72
2022/06/09 04:54:28;;;;;;;;;;;14.50;99.90;;;13.84;100.00;95195.13;10502382;28;2023;-72
2022/06/09 04:59:31;;;;;;;;;;;14.50;99.90;;;13.74;100.00;95196.16;10502133;28;1926;-72
2022/06/09 05:04:35;;;;;;;;;;;14.50;99.90;;;13.78;100.00;95197.16;10481219;28;1927;-72
2022/06/09 05:09:38;;;;;;;;;;;14.50;99.90;;;13.89;100.00;95195.81;10488064;28;1975;-73
2022/06/09 05:14:42;;;;;;;;;;;14.60;99.90;;;13.94;100.00;95190.28;10502808;28;1915;-71
2022/06/09 05:19:45;;;;;;;;;;;14.60;99.90;;;13.88;100.00;95204.25;10475693;28;1966;-72
2022/06/09 05:24:48;;;;;;;;;;;14.60;99.90;;;14.00;100.00;95210.69;10502574;28;1959;-72
2022/06/09 05:29:51;;;;;;;;;;;14.70;99.90;;;14.13;100.00;95213.63;10502450;28;1997;-71
2022/06/09 05:34:55;;;;;;;;;;;14.70;99.90;;;14.06;100.00;95214.06;10546984;28;1426;-73
2022/06/09 05:45:18;;;;;;;;;;;14.70;99.90;;;13.78;100.00;95218.78;10501252;28;1814;-73
2022/06/09 05:50:21;;;;;;;;;;;14.60;99.90;;;13.75;100.00;95227.50;10504075;28;2005;-75
2022/06/09 05:55:25;;;;;;;;;;;14.50;99.90;;;13.64;100.00;95228.84;10512122;28;1843;-75
2022/06/09 06:00:29;;;;;;;;;;;14.30;99.90;;;13.61;100.00;95240.25;10498090;28;1796;-73
2022/06/09 06:10:52;;;;;;;;;;;14.30;99.90;;;13.07;100.00;95263.53;10504531;28;1976;-74
2022/06/09 06:15:55;;;;;;;;;;;14.00;99.90;;;12.88;100.00;95263.66;10501232;28;1945;-75
2022/06/09 06:21:05;;;;;;;;;;;13.70;99.90;;;12.82;100.00;95271.03;10485922;28;1806;-75
2022/06/09 06:26:08;;;;;;;;;;;13.70;99.90;;;12.69;100.00;95275.31;10508757;28;1890;-75
2022/06/09 06:31:12;;;;;;;;;;;13.50;99.90;;;12.80;100.00;95281.34;10503995;28;1964;-74
2022/06/09 06:36:16;;;;;;;;;;;13.50;99.90;;;13.09;100.00;95285.59;10508746;28;1779;-74
2022/06/09 06:41:19;;;;;;;;;;;13.70;99.90;;;13.23;100.00;95289.13;10491765;28;1900;-75
2022/06/09 06:46:22;;;;;;;;;;;13.80;99.90;;;13.55;100.00;95290.06;10510376;28;1954;-75
2022/06/09 06:51:25;;;;;;;;;;;14.10;99.90;;;13.95;100.00;95299.16;10491403;28;1910;-75
2022/06/09 06:56:28;;;;;;;;;;;14.40;99.90;;;14.21;100.00;95291.25;10482971;28;1818;-75
2022/06/09 07:01:31;;;;;;;;;;;14.60;99.90;;;14.52;100.00;95292.09;10493475;28;1957;-75
2022/06/09 07:06:35;;;;;;;;;;;15.00;99.90;;;14.62;100.00;95288.31;10508204;28;1841;-75
2022/06/09 07:11:39;;;;;;;;;;;15.20;99.90;;;14.88;100.00;95283.03;10503073;28;1941;-75
2022/06/09 07:16:42;;;;;;;;;;;15.30;99.90;;;15.41;100.00;95290.22;10508718;28;1859;-75
2022/06/09 07:21:47;;;;;;;;;;;15.80;99.90;;;15.25;100.00;95289.03;10480604;28;1818;-74
2022/06/09 07:26:51;;;;;;;;;;;15.80;99.90;;;15.38;100.00;95290.81;10487946;28;1814;-75
2022/06/09 07:31:54;;;;;;;;;;;16.20;99.90;;;16.17;100.00;95293.31;10512443;28;1918;-76
2022/06/09 07:36:58;;;;;;;;;;;16.40;99.90;;;16.49;98.11;95288.47;10500492;28;1811;-75
2022/06/09 07:42:01;;;;;;;;;;;16.80;99.90;;;17.16;97.33;95292.41;10504692;28;2140;-74
2022/06/09 07:47:05;;;;;;;;;;;17.30;99.90;;;16.58;97.66;95286.53;10500640;28;2001;-76
2022/06/09 07:52:09;;;;;;;;;;;17.30;99.90;;;16.04;100.00;95294.28;10483442;28;1934;-75
2022/06/09 07:57:12;;;;;;;;;;;17.10;99.90;;;15.38;100.00;95315.19;10480260;28;1871;-75
2022/06/09 08:02:15;;;;;;;;;;;16.30;99.90;;;13.67;100.00;95336.25;10485883;28;1831;-75
2022/06/09 08:07:19;;;;;;;;;;;15.10;99.90;;;12.97;100.00;95348.16;10478153;28;1832;-76
2022/06/09 08:12:22;;;;;;;;;;;14.20;99.90;;;12.44;100.00;95346.69;10505849;28;1957;-76
2022/06/09 08:17:25;;;;;;;;;;;13.50;99.90;;;12.24;100.00;95376.66;10479082;28;1913;-76
2022/06/09 08:22:28;;;;;;;;;;;13.10;99.90;;;12.34;100.00;95375.69;10499121;28;1865;-75
2022/06/09 08:27:32;;;;;;;;;;;13.00;99.90;;;12.49;100.00;95378.16;10474883;28;1825;-75
2022/06/09 08:32:35;;;;;;;;;;;13.20;99.90;;;12.50;100.00;95387.03;10505186;28;1914;-75
2022/06/09 08:37:38;;;;;;;;;;;13.20;99.90;;;12.60;100.00;95398.47;10487275;28;1966;-76
2022/06/09 08:42:41;;;;;;;;;;;13.20;99.90;;;12.85;100.00;95397.22;10511929;28;2024;-77
2022/06/09 08:47:45;;;;;;;;;;;13.40;99.90;;;12.97;100.00;95405.63;10506558;28;2061;-76
2022/06/09 08:52:48;;;;;;;;;;;13.50;99.90;;;13.25;100.00;95408.41;10510583;28;1980;-76
2022/06/09 08:57:52;;;;;;;;;;;13.70;99.90;;;13.49;100.00;95409.00;10482990;28;1896;-75
2022/06/09 09:02:57;;;;;;;;;;;14.00;99.90;;;13.86;100.00;95420.66;10479920;28;2048;-77
2022/06/09 09:08:00;;;;;;;;;;;14.10;99.90;;;14.18;100.00;95427.00;10509438;28;2060;-74
2022/06/09 09:13:03;;;;;;;;;;;14.40;99.90;;;14.63;100.00;95418.97;10507590;28;1985;-75
2022/06/09 09:18:06;;;;;;;;;;;14.70;99.90;;;15.35;100.00;95406.00;10491171;28;1909;-74
2022/06/09 09:23:11;;;;;;;;;;;15.30;99.90;;;15.71;100.00;95412.34;10494264;28;1856;-75
2022/06/09 09:28:14;;;;;;;;;;;15.80;99.90;;;15.90;100.00;95410.16;10502238;28;1806;-77
2022/06/09 09:33:17;;;;;;;;;;;15.90;99.90;;;15.73;100.00;95404.72;10504348;28;1947;-75
2022/06/09 09:38:21;;;;;;;;;;;16.20;99.90;;;15.62;100.00;95413.13;10552673;28;1871;-75
2022/06/09 09:43:24;;;;;;;;;;;16.20;99.90;;;15.79;100.00;95412.41;10546377;28;1531;-74
2022/06/09 09:48:28;;;;;;;;;;;16.30;99.90;;;16.44;100.00;95414.22;10517357;28;1656;-75
2022/06/09 09:53:33;;;;;;;;;;;16.50;99.90;;;16.60;100.00;95422.66;10515586;28;1985;-76
2022/06/09 09:58:39;;;;;;;;;;;16.80;99.90;;;17.03;100.00;95422.66;10514211;28;1822;-75
2022/06/09 10:09:10;;;;;;;;;;;17.20;99.90;;;13.83;100.00;95464.50;10503725;28;1887;-76
2022/06/09 10:14:14;;;;;;;;;;;15.90;99.90;;;12.32;100.00;95481.09;10515533;28;1918;-76
2022/06/09 10:19:17;;;;;;;;;;;13.80;99.90;;;12.13;100.00;95477.59;10501285;28;1852;-77
2022/06/09 10:24:44;;;;;;;;;;;13.10;99.90;;;12.32;100.00;95478.41;10505889;28;1837;-77
2022/06/09 10:29:48;;;;;;;;;;;12.90;99.90;;;12.54;100.00;95485.13;10505453;28;1921;-76
2022/06/09 10:34:51;;;;;;;;;;;13.10;99.90;;;12.92;100.00;95483.97;10501272;28;1845;-76
2022/06/09 10:39:54;;;;;;;;;;;13.20;99.90;;;13.15;100.00;95482.22;10504135;28;1903;-77
2022/06/09 10:44:58;;;;;;;;;;;13.50;99.90;;;13.68;100.00;95479.13;10503176;28;1852;-77
2022/06/09 10:55:24;;;;;;;;;;;14.30;99.90;;;14.58;100.00;95476.69;10513376;28;1835;-76
2022/06/09 11:00:28;;;;;;;;;;;14.70;99.90;;;15.19;100.00;95477.91;10509771;28;1783;-76
2022/06/09 11:05:31;;;;;;;;;;;15.20;99.90;;;15.76;100.00;95471.84;10515263;28;1909;-76
2022/06/09 11:10:35;;;;;;;;;;;15.60;99.90;;;16.26;100.00;95464.16;10491163;28;1914;-75
2022/06/09 11:15:38;;;;;;;;;;;16.20;99.90;;;17.01;100.00;95470.25;10489713;28;1810;-75
2022/06/09 11:20:41;;;;;;;;;;;16.80;99.90;;;17.68;100.00;95460.63;10488360;28;1820;-75
2022/06/09 11:25:44;;;;;;;;;;;17.50;99.90;;;18.72;98.24;95458.16;10504176;28;1902;-74
2022/06/09 11:30:48;;;;;;;;;;;18.30;99.90;;;19.73;91.13;95459.75;10500532;28;1969;-74
2022/06/09 11:35:56;;;;;;;;;;;19.30;99.90;;;20.23;87.40;95451.19;10484080;28;1726;-75
2022/06/09 11:40:59;;;;;;;;;;;20.20;99.90;;;19.94;84.51;95453.03;10496640;28;2303;-74
2022/06/09 11:46:03;;;;;;;;;;;20.40;99.90;;;19.77;91.19;95455.97;10498375;28;1947;-74
2022/06/09 11:51:06;;;;;;;;;;;20.60;99.90;;;18.56;92.20;95441.59;10504284;28;1950;-74
2022/06/09 11:56:09;;;;;;;;;;;20.00;99.90;;;17.80;93.11;95447.97;10509016;28;1827;-75
2022/06/09 12:01:13;;;;;;;;;;;19.10;99.90;;;17.91;93.44;95458.50;10513722;28;1837;-75
2022/06/09 12:06:16;;;;;;;;;;;18.60;99.90;;;18.58;89.68;95465.78;10490066;28;1887;-75
2022/06/09 12:11:19;;;;;;;;;;;18.80;99.90;;;19.40;79.64;95466.00;10477740;28;1983;-75
2022/06/09 12:16:23;;;;;;;;;;;19.40;99.90;;;20.02;78.65;95477.81;10513066;28;2006;-75
2022/06/09 12:21:27;;;;;;;;;;;19.90;99.90;;;18.86;80.08;95476.94;10495560;28;1830;-75
2022/06/09 12:26:30;;;;;;;;;;;19.90;99.90;;;18.28;83.07;95484.84;10485963;28;2188;-75
2022/06/09 12:31:33;;;;;;;;;;;19.20;99.90;;;17.90;82.72;95489.53;10509889;28;1977;-75
2022/06/09 12:36:36;;;;;;;;;;;18.70;99.90;;;17.95;83.64;95487.44;10483823;28;1827;-75
2022/06/09 12:41:39;;;;;;;;;;;18.40;99.90;;;18.53;86.74;95499.41;10496458;28;1848;-75
2022/06/09 12:46:42;;;;;;;;;;;18.70;99.90;;;18.78;79.33;95496.88;10505689;28;2008;-76
2022/06/09 12:51:46;;;;;;;;;;;19.10;99.90;;;19.30;77.65;95508.09;10495221;28;1973;-76
2022/06/09 12:56:50;;;;;;;;;;;19.60;99.90;;;19.69;72.20;95500.50;10498683;28;2003;-75
2022/06/09 13:01:53;;;;;;;;;;;20.10;99.90;;;20.28;74.37;95513.75;10503802;28;1804;-75
2022/06/09 13:06:56;;;;;;;;;;;20.40;99.90;;;19.52;71.70;95514.28;10487646;28;2213;-76
2022/06/09 13:17:20;;;;;;;;;;;20.00;99.90;;;19.46;73.94;95532.78;10483796;28;1860;-74
2022/06/09 13:22:23;;;;;;;;;;;20.00;99.90;;;19.57;70.24;95528.50;10498675;28;1851;-75
2022/06/09 13:27:26;;;;;;;;;;;20.10;99.90;;;19.20;73.58;95532.25;10479120;28;1833;-73
2022/06/09 13:32:30;;;;;;;;;;;20.00;99.90;;;18.64;73.92;95529.78;10501159;28;1918;-74
2022/06/09 13:37:33;;;;;;;;;;;19.70;99.90;;;17.89;78.73;95539.59;10503305;28;1929;-74
2022/06/09 13:42:37;;;;;;;;;;;19.00;99.90;;;17.73;79.15;95548.28;10544511;28;1831;-75
2022/06/09 13:47:41;;;;;;;;;;;18.70;99.90;;;17.51;76.40;95549.28;10513070;28;1627;-74
2022/06/09 13:52:44;;;;;;;;;;;18.50;99.90;;;17.58;80.47;95548.78;10514752;28;1983;-73
2022/06/09 13:57:48;;;;;;;;;;;18.30;99.90;;;17.92;79.06;95557.97;10489797;28;1820;-76
2022/06/09 14:02:51;;;;;;;;;;;18.60;99.90;;;18.33;75.36;95565.50;10510155;28;2153;-75
2022/06/09 14:07:54;;;;;;;;;;;18.80;99.90;;;18.10;76.02;95571.19;10505518;28;1877;-75
2022/06/09 14:12:57;;;;;;;;;;;18.70;99.90;;;17.81;68.34;95571.13;10493938;28;1965;-74
2022/06/09 14:18:00;;;;;;;;;;;18.80;99.90;;;17.79;67.03;95582.31;10515452;28;1932;-75
2022/06/09 14:23:04;;;;;;;;;;;18.40;99.90;;;18.33;67.04;95585.34;10500421;28;1810;-74
2022/06/09 14:28:10;;;;;;;;;;;18.80;99.90;;;18.98;64.60;95583.22;10501709;28;1891;-74
2022/06/09 14:33:13;;;;;;;;;;;19.20;99.90;;;19.11;66.27;95581.38;10486026;28;1947;-74
2022/06/09 14:38:16;;;;;;;;;;;19.60;99.90;;;19.37;64.51;95578.41;10501241;28;1859;-74
2022/06/09 14:43:20;;;;;;;;;;;19.80;99.90;;;19.15;64.76;95598.66;10509210;28;1906;-74
2022/06/09 14:48:23;;;;;;;;;;;20.00;99.90;;;19.27;66.34;95595.97;10502624;28;1966;-74
2022/06/09 14:53:27;;;;;;;;;;;19.80;99.90;;;18.94;64.09;95593.16;10496839;28;1906;-74
2022/06/09 14:58:30;;;;;;;;;;;19.80;99.90;;;18.77;66.12;95596.81;10513367;28;1862;-75
2022/06/09 15:03:33;;;;;;;;;;;19.30;99.90;;;18.71;66.35;95598.16;10501351;28;1806;-74
2022/06/09 15:08:37;;;;;;;;;;;19.30;99.90;;;18.52;65.06;95603.19;10504050;28;1826;-75
2022/06/09 15:13:41;;;;;;;;;;;19.20;99.90;;;18.12;67.92;95611.66;10493139;28;1999;-75
2022/06/09 15:18:49;;;;;;;;;;;19.00;99.90;;;17.90;67.85;95611.91;10480378;28;1911;-74
2022/06/09 15:23:53;;;;;;;;;;;18.80;99.90;;;17.46;70.71;95605.69;10507671;28;1823;-74
2022/06/09 15:28:59;;;;;;;;;;;18.40;99.90;;;17.73;71.87;95618.97;10506375;28;1736;-74
2022/06/09 15:34:02;;;;;;;;;;;18.50;99.90;;;17.85;70.72;95618.28;10503127;28;2195;-74
2022/06/09 15:39:06;;;;;;;;;;;18.50;99.90;;;18.29;64.96;95627.94;10503506;28;1871;-74
2022/06/09 15:44:09;;;;;;;;;;;18.70;99.90;;;18.42;65.04;95631.56;10492935;28;1847;-74
2022/06/09 15:49:13;;;;;;;;;;;19.00;99.90;;;18.66;62.61;95635.63;10510136;28;1843;-75
2022/06/09 15:54:16;;;;;;;;;;;19.10;99.90;;;18.40;64.81;95641.19;10504047;28;1974;-75
2022/06/09 15:59:19;;;;;;;;;;;19.20;99.90;;;18.06;67.57;95657.28;10494799;28;1943;-74
2022/06/09 16:04:22;;;;;;;;;;;19.00;99.90;;;17.53;71.20;95644.06;10501138;28;1811;-75
2022/06/09 16:09:26;;;;;;;;;;;18.50;99.90;;;17.56;72.06;95651.59;10503615;28;1874;-75
2022/06/09 16:14:30;;;;;;;;;;;18.30;99.90;;;17.28;71.42;95653.81;10497217;28;1936;-74
2022/06/09 16:19:33;;;;;;;;;;;18.20;99.90;;;17.22;72.45;95655.88;10506478;28;1834;-75
2022/06/09 16:24:36;;;;;;;;;;;17.90;99.90;;;17.08;71.18;95665.28;10491955;28;1848;-75
2022/06/09 16:29:40;;;;;;;;;;;17.90;99.90;;;17.49;70.13;95665.63;10491193;28;2165;-74
2022/06/09 16:34:44;;;;;;;;;;;18.10;99.90;;;17.46;69.62;95682.59;10480720;28;2020;-74
2022/06/09 16:39:47;;;;;;;;;;;18.00;99.90;;;17.72;70.46;95679.09;10500912;28;1860;-76
2022/06/09 16:44:50;;;;;;;;;;;18.20;99.90;;;17.71;68.73;95680.19;10484990;28;1832;-74
2022/06/09 16:49:54;;;;;;;;;;;18.30;99.90;;;17.29;70.85;95688.78;10500565;28;1826;-75
2022/06/09 16:54:58;;;;;;;;;;;18.20;99.90;;;17.05;71.97;95702.03;10504891;28;1985;-74
2022/06/09 17:00:02;;;;;;;;;;;18.00;99.90;;;17.14;72.65;95710.19;10502403;28;1721;-74
2022/06/09 17:05:05;;;;;;;;;;;17.80;99.90;;;17.19;71.41;95716.28;10509362;28;1782;-75
2022/06/09 17:10:08;;;;;;;;;;;17.90;99.90;;;16.83;73.84;95713.00;10502180;28;2267;-74
2022/06/09 17:15:11;;;;;;;;;;;17.80;99.90;;;16.80;76.50;95730.72;10508494;28;1914;-74
2022/06/09 17:20:14;;;;;;;;;;;17.60;99.90;;;16.79;76.30;95728.28;10500972;28;1770;-75
2022/06/09 17:25:17;;;;;;;;;;;17.60;99.90;;;16.55;76.68;95729.47;10506602;28;1836;-73
2022/06/09 17:30:20;;;;;;;;;;;17.50;99.90;;;16.30;77.05;95743.69;10510861;28;1873;-74
2022/06/09 17:35:23;;;;;;;;;;;17.30;99.90;;;16.14;80.15;95752.19;10506214;28;1973;-74
2022/06/09 17:40:26;;;;;;;;;;;17.00;99.90;;;16.02;79.45;95749.25;10500332;28;1984;-75
2022/06/09 17:45:29;;;;;;;;;;;16.90;99.90;;;15.65;80.58;95756.63;10571528;28;1819;-74
2022/06/09 17:50:32;;;;;;;;;;;16.80;99.90;;;15.52;82.05;95760.13;10511468;28;1994;-74
2022/06/09 17:55:36;;;;;;;;;;;16.60;99.90;;;15.54;81.89;95763.34;10511471;28;1910;-74
2022/06/09 18:00:39;;;;;;;;;;;16.40;99.90;;;15.57;84.26;95778.19;10500794;28;1803;-74
2022/06/09 18:05:42;;;;;;;;;;;16.40;99.90;;;15.52;84.30;95784.50;10513805;28;1717;-74
2022/06/09 18:10:46;;;;;;;;;;;16.40;99.90;;;15.50;84.22;95792.16;10492878;28;1846;-74
2022/06/09 18:15:50;;;;;;;;;;;16.40;99.90;;;15.41;85.02;95807.53;10510989;28;1906;-74
2022/06/09 18:20:53;;;;;;;;;;;16.30;99.90;;;15.36;86.20;95808.44;10489971;28;1768;-74
2022/06/09 18:25:56;;;;;;;;;;;16.20;99.90;;;15.28;88.09;95821.88;10500158;28;2086;-76
2022/06/09 18:30:59;;;;;;;;;;;16.10;99.90;;;15.11;89.16;95827.91;10508030;28;1838;-74
2022/06/09 18:36:02;;;;;;;;;;;16.20;99.90;;;14.83;95.00;95837.91;10504306;28;1922;-74
2022/06/09 18:41:06;;;;;;;;;;;16.00;99.90;;;14.68;100.00;95847.09;10484241;28;1819;-75
2022/06/09 18:46:10;;;;;;;;;;;15.70;99.90;;;14.50;100.00;95856.88;10512103;28;2001;-73
2022/06/09 18:51:13;;;;;;;;;;;15.70;99.90;;;14.35;100.00;95859.78;10505294;28;1880;-72
2022/06/09 18:56:18;;;;;;;;;;;15.40;99.90;;;14.05;100.00;95869.19;10484221;28;2016;-73
2022/06/09 19:01:21;;;;;;;;;;;15.30;99.90;;;13.87;100.00;95876.22;10498421;28;1897;-72
2022/06/09 19:06:24;;;;;;;;;;;15.00;99.90;;;13.73;100.00;95892.31;10502010;28;1882;-71
2022/06/09 19:11:28;;;;;;;;;;;14.80;99.90;;;13.72;100.00;95900.72;10490769;28;1823;-72
2022/06/09 19:16:31;;;;;;;;;;;14.70;99.90;;;13.65;100.00;95889.47;10500956;28;1971;-70
2022/06/09 19:21:35;;;;;;;;;;;14.60;99.90;;;13.65;100.00;95897.56;10487803;28;1846;-72
2022/06/09 19:26:39;;;;;;;;;;;14.60;99.90;;;13.61;100.00;95905.44;10480970;28;1794;-72
2022/06/09 19:31:42;;;;;;;;;;;14.60;99.90;;;13.59;100.00;95923.03;10504051;28;1818;-73
2022/06/09 19:36:45;;;;;;;;;;;14.60;99.90;;;13.61;100.00;95947.84;10476812;28;1981;-72
2022/06/09 19:41:49;;;;;;;;;;;14.60;99.90;;;13.24;100.00;95960.16;10489491;28;1764;-73
2022/06/09 19:46:52;;;;;;;;;;;14.20;99.90;;;12.97;100.00;95964.13;10498733;28;1808;-74
2022/06/09 19:51:59;;;;;;;;;;;14.00;99.90;;;12.80;100.00;95957.56;10500650;28;1914;-72
2022/06/09 19:57:01;;;;;;;;;;;13.70;99.90;;;12.73;100.00;95976.78;10498967;28;1897;-73
2022/06/09 20:02:05;;;;;;;;;;;13.70;99.90;;;12.38;100.00;95980.50;10507970;28;1816;-73
2022/06/09 20:07:08;;;;;;;;;;;13.40;99.90;;;12.33;100.00;95994.81;10481570;28;1851;-72
2022/06/09 20:12:11;;;;;;;;;;;13.30;99.90;;;12.22;100.00;96001.38;10486269;28;1905;-73
2022/06/09 20:17:14;;;;;;;;;;;13.10;99.90;;;12.16;100.00;96002.50;10507962;28;1869;-73
2022/06/09 20:22:18;;;;;;;;;;;13.00;99.90;;;12.03;100.00;96005.78;10509627;28;2192;-73
2022/06/09 20:27:21;;;;;;;;;;;13.00;99.90;;;12.04;100.00;96023.56;10482413;28;1900;-74
2022/06/09 20:32:24;;;;;;;;;;;12.80;99.90;;;11.98;100.00;96046.22;10497220;28;1973;-74
2022/06/09 20:37:27;;;;;;;;;;;12.80;99.90;;;11.93;100.00;96038.16;10476754;28;1883;-73
2022/06/09 20:42:32;;;;;;;;;;;12.80;99.90;;;11.83;100.00;96031.72;10490316;28;2236;-73
2022/06/09 20:47:35;;;;;;;;;;;12.70;99.90;;;11.84;100.00;96027.97;10473373;28;1914;-73
2022/06/09 20:52:38;;;;;;;;;;;12.60;99.90;;;11.81;100.00;96041.97;10477795;28;1914;-73
2022/06/09 20:57:41;;;;;;;;;;;12.60;99.90;;;11.79;100.00;96054.06;10500149;28;1838;-73
2022/06/09 21:02:44;;;;;;;;;;;12.60;99.90;;;11.75;100.00;96053.78;10503237;28;1879;-74
2022/06/09 21:07:47;;;;;;;;;;;12.60;99.90;;;11.81;100.00;96057.31;10488600;28;1811;-74
2022/06/09 21:18:15;;;;;;;;;;;12.60;99.90;;;11.86;100.00;96065.38;10459293;28;1867;-73
2022/06/09 21:23:18;;;;;;;;;;;12.70;99.90;;;11.84;100.00;96067.56;10484401;28;1951;-73
2022/06/09 21:28:21;;;;;;;;;;;12.80;99.90;;;11.83;100.00;96077.53;10492999;28;1939;-73
2022/06/09 21:33:25;;;;;;;;;;;12.70;99.90;;;11.88;100.00;96088.25;10507323;28;1913;-73
2022/06/09 21:38:29;;;;;;;;;;;12.70;99.90;;;11.92;100.00;96082.34;10503283;28;1857;-73
2022/06/09 21:43:33;;;;;;;;;;;12.80;99.90;;;11.93;100.00;96097.41;10510729;28;1906;-73
2022/06/09 21:48:36;;;;;;;;;;;12.90;99.90;;;11.99;100.00;96088.25;10543279;28;1810;-72
2022/06/09 21:53:39;;;;;;;;;;;12.80;99.90;;;11.98;100.00;96098.22;10534060;28;2065;-74
2022/06/09 21:58:42;;;;;;;;;;;12.80;99.90;;;11.96;100.00;96102.25;10506125;28;1693;-73
2022/06/09 22:03:46;;;;;;;;;;;12.80;99.90;;;11.96;100.00;96113.84;10504473;28;1729;-74
2022/06/09 22:08:49;;;;;;;;;;;12.50;99.90;;;11.97;100.00;96111.97;10493900;28;1829;-73
2022/06/09 22:13:53;;;;;;;;;;;12.80;99.90;;;11.92;100.00;96107.38;10499679;28;1979;-74
2022/06/09 22:18:56;;;;;;;;;;;12.90;99.90;;;11.86;100.00;96108.47;10497938;28;1802;-74
2022/06/09 22:23:59;;;;;;;;;;;12.80;99.90;;;11.89;100.00;96107.91;10496580;28;1740;-73
2022/06/09 22:29:03;;;;;;;;;;;12.80;99.90;;;11.89;100.00;96108.72;10503007;28;1760;-72
2022/06/09 22:34:06;;;;;;;;;;;12.70;99.90;;;11.87;100.00;96110.91;10498846;28;1910;-72
2022/06/09 22:39:09;;;;;;;;;;;12.90;99.90;;;11.93;100.00;96108.19;10496524;28;1937;-73
2022/06/09 22:44:12;;;;;;;;;;;12.80;99.90;;;11.85;100.00;96115.75;10494556;28;1850;-74
2022/06/09 22:49:16;;;;;;;;;;;12.70;99.90;;;11.81;100.00;96122.75;10498559;28;1835;-72
2022/06/09 22:54:18;;;;;;;;;;;12.80;99.90;;;11.87;100.00;96126.25;10500889;28;1910;-72
2022/06/09 22:59:22;;;;;;;;;;;12.70;99.90;;;11.85;100.00;96129.22;10496414;28;1817;-72
2022/06/09 23:04:25;;;;;;;;;;;12.80;99.90;;;11.83;100.00;96130.56;10481356;28;1729;-72
2022/06/09 23:09:30;;;;;;;;;;;12.70;99.90;;;11.79;100.00;96132.97;10491566;28;1728;-73
2022/06/09 23:14:33;;;;;;;;;;;12.60;99.90;;;11.76;100.00;96136.19;10496206;28;1969;-73
2022/06/09 23:19:36;;;;;;;;;;;12.70;99.90;;;11.70;100.00;96137.28;10480374;28;1815;-73
2022/06/09 23:24:42;;;;;;;;;;;12.60;99.90;;;11.75;100.00;96133.78;10495556;28;1648;-73
2022/06/09 23:29:45;;;;;;;;;;;12.60;99.90;;;11.69;100.00;96135.66;10479448;28;1829;-72
2022/06/09 23:34:48;;;;;;;;;;;12.70;99.90;;;11.71;100.00;96125.47;10499671;28;1962;-73